createdAt,value
2018-05-17T00:01:22.445Z,61.70
2018-05-17T00:03:49.933Z,62.00
2018-05-17T00:06:17.536Z,62.10
2018-05-17T00:08:45.806Z,62.20
2018-05-17T00:11:13.260Z,62.10
2018-05-17T00:13:40.759Z,62.30
2018-05-17T00:16:08.228Z,62.50
2018-05-17T00:18:35.691Z,62.60
2018-05-17T00:21:03.172Z,62.60
2018-05-17T00:23:30.629Z,62.80
2018-05-17T00:25:58.111Z,62.80
2018-05-17T00:28:25.572Z,62.80
2018-05-17T00:30:53.056Z,62.90
2018-05-17T00:33:21.307Z,63.20
2018-05-17T00:35:48.872Z,63.20
2018-05-17T00:38:16.348Z,63.20
2018-05-17T00:40:44.661Z,63.30
2018-05-17T00:43:12.170Z,63.30
2018-05-17T00:45:39.648Z,63.40
2018-05-17T00:48:07.213Z,63.50
2018-05-17T00:50:34.824Z,63.50
2018-05-17T00:53:14.164Z,63.60
2018-05-17T00:55:41.641Z,63.60
2018-05-17T00:58:09.146Z,63.60
2018-05-17T01:00:36.654Z,63.60
2018-05-17T01:03:04.108Z,63.60
2018-05-17T01:05:31.588Z,63.60
2018-05-17T01:07:59.041Z,63.70
2018-05-17T01:10:26.537Z,63.70
2018-05-17T01:12:54.016Z,63.70
2018-05-17T01:15:21.645Z,63.60
2018-05-17T01:17:50.069Z,63.50
2018-05-17T01:20:17.554Z,63.60
2018-05-17T01:22:45.034Z,63.60
2018-05-17T01:25:12.500Z,63.50
2018-05-17T01:27:40.743Z,63.40
2018-05-17T01:30:08.224Z,63.40
2018-05-17T01:32:35.706Z,63.50
2018-05-17T01:35:03.317Z,63.50
2018-05-17T01:37:42.645Z,63.50
2018-05-17T01:40:10.111Z,63.50
2018-05-17T01:42:37.580Z,63.50
2018-05-17T01:45:05.078Z,63.50
2018-05-17T01:47:32.559Z,63.40
2018-05-17T01:50:00.028Z,63.10
2018-05-17T01:52:27.508Z,63.00
2018-05-17T01:54:54.992Z,62.80
2018-05-17T01:57:23.244Z,62.70
2018-05-17T01:59:50.727Z,62.70
2018-05-17T02:02:18.978Z,62.60
2018-05-17T02:04:46.438Z,62.60
2018-05-17T02:07:13.972Z,62.40
2018-05-17T02:09:41.428Z,62.40
2018-05-17T02:12:08.906Z,62.40
2018-05-17T02:14:36.368Z,62.60
2018-05-17T02:17:03.850Z,62.60
2018-05-17T02:19:31.383Z,62.70
2018-05-17T02:21:58.865Z,62.80
2018-05-17T02:24:27.112Z,62.80
2018-05-17T02:26:55.340Z,62.70
2018-05-17T02:29:22.904Z,62.70
2018-05-17T02:31:50.482Z,62.60
2018-05-17T02:34:18.054Z,62.40
2018-05-17T02:36:45.553Z,62.40
2018-05-17T02:39:13.044Z,62.50
2018-05-17T02:41:40.497Z,62.30
2018-05-17T02:44:07.985Z,62.10
2018-05-17T02:46:35.675Z,62.00
2018-05-17T02:49:03.160Z,62.00
2018-05-17T02:51:31.396Z,61.50
2018-05-17T02:53:58.894Z,61.50
2018-05-17T02:56:27.133Z,61.20
2018-05-17T02:58:55.363Z,61.20
2018-05-17T03:01:22.856Z,61.20
2018-05-17T03:03:50.323Z,61.10
2018-05-17T03:06:17.802Z,61.00
2018-05-17T03:08:45.260Z,60.80
2018-05-17T03:11:12.720Z,60.80
2018-05-17T03:13:40.195Z,60.70
2018-05-17T03:16:08.435Z,60.50
2018-05-17T03:18:36.104Z,60.50
2018-05-17T03:21:04.367Z,60.50
2018-05-17T03:23:31.920Z,60.50
2018-05-17T03:25:59.440Z,60.50
2018-05-17T03:28:26.937Z,60.40
2018-05-17T03:30:54.456Z,60.20
2018-05-17T03:33:22.686Z,60.00
2018-05-17T03:35:50.223Z,60.00
2018-05-17T03:38:17.714Z,60.00
2018-05-17T03:40:45.167Z,60.00
2018-05-17T03:43:12.662Z,60.00
2018-05-17T03:45:40.118Z,60.10
2018-05-17T03:48:08.363Z,60.00
2018-05-17T03:50:35.866Z,60.00
2018-05-17T03:53:03.373Z,60.00
2018-05-17T03:55:30.841Z,60.00
2018-05-17T03:57:58.316Z,59.90
2018-05-17T04:00:26.525Z,60.00
2018-05-17T04:03:05.884Z,59.80
2018-05-17T04:05:45.059Z,59.90
2018-05-17T04:08:12.720Z,59.80
2018-05-17T04:10:40.188Z,59.70
2018-05-17T04:13:07.669Z,59.80
2018-05-17T04:15:35.889Z,59.60
2018-05-17T04:18:03.377Z,59.60
2018-05-17T04:20:30.855Z,59.70
2018-05-17T04:22:59.120Z,59.70
2018-05-17T04:25:27.370Z,59.50
2018-05-17T04:27:54.852Z,59.40
2018-05-17T04:30:22.299Z,59.40
2018-05-17T04:32:49.777Z,59.30
2018-05-17T04:35:18.019Z,58.90
2018-05-17T04:37:45.492Z,58.90
2018-05-17T04:40:13.046Z,58.70
2018-05-17T04:42:41.209Z,58.50
2018-05-17T04:45:08.780Z,58.50
2018-05-17T04:47:36.251Z,58.30
2018-05-17T04:50:03.745Z,58.40
2018-05-17T04:52:31.213Z,58.40
2018-05-17T04:54:58.687Z,58.40
2018-05-17T04:57:26.168Z,58.40
2018-05-17T04:59:53.632Z,58.20
2018-05-17T05:02:21.169Z,58.20
2018-05-17T05:04:48.626Z,58.30
2018-05-17T05:07:16.108Z,58.30
2018-05-17T05:09:43.731Z,58.20
2018-05-17T05:12:11.273Z,58.20
2018-05-17T05:14:38.754Z,58.20
2018-05-17T05:17:06.305Z,58.00
2018-05-17T05:19:33.801Z,57.90
2018-05-17T05:22:01.736Z,57.90
2018-05-17T05:24:29.193Z,57.90
2018-05-17T05:26:56.674Z,57.70
2018-05-17T05:29:24.137Z,57.50
2018-05-17T05:31:51.624Z,57.20
2018-05-17T05:34:19.098Z,57.20
2018-05-17T05:36:47.324Z,57.20
2018-05-17T05:39:14.801Z,57.20
2018-05-17T05:41:43.195Z,57.20
2018-05-17T05:44:10.908Z,57.20
2018-05-17T05:46:39.195Z,56.80
2018-05-17T05:49:06.727Z,56.60
2018-05-17T05:51:35.177Z,56.60
2018-05-17T05:54:02.636Z,56.60
2018-05-17T05:56:30.106Z,56.40
2018-05-17T05:58:58.387Z,56.20
2018-05-17T06:01:26.621Z,56.30
2018-05-17T06:03:54.090Z,56.30
2018-05-17T06:06:21.573Z,56.20
2018-05-17T06:08:49.156Z,55.70
2018-05-17T06:11:16.806Z,55.80
2018-05-17T06:13:45.164Z,56.10
2018-05-17T06:16:12.615Z,56.00
2018-05-17T06:18:40.124Z,55.70
2018-05-17T06:21:07.603Z,55.40
2018-05-17T06:23:35.072Z,55.40
2018-05-17T06:26:02.539Z,55.00
2018-05-17T06:28:30.013Z,55.00
2018-05-17T06:30:57.523Z,54.60
2018-05-17T06:33:25.443Z,54.50
2018-05-17T06:35:52.968Z,54.50
2018-05-17T06:38:20.420Z,54.50
2018-05-17T06:40:47.917Z,54.40
2018-05-17T06:43:15.373Z,54.20
2018-05-17T06:45:42.863Z,54.20
2018-05-17T06:48:10.356Z,54.10
2018-05-17T06:50:37.816Z,53.90
2018-05-17T06:53:05.287Z,53.50
2018-05-17T06:55:33.572Z,53.40
2018-05-17T06:58:01.065Z,53.40
2018-05-17T07:00:29.378Z,53.20
2018-05-17T07:02:56.778Z,53.20
2018-05-17T07:05:24.235Z,53.40
2018-05-17T07:07:51.720Z,53.50
2018-05-17T07:10:20.048Z,53.90
2018-05-17T07:12:47.589Z,53.90
2018-05-17T07:15:15.077Z,54.00
2018-05-17T07:17:42.526Z,53.70
2018-05-17T07:20:10.778Z,53.40
2018-05-17T07:22:38.264Z,53.30
2018-05-17T07:25:05.749Z,53.20
2018-05-17T07:27:33.601Z,52.90
2018-05-17T07:30:01.227Z,52.40
2018-05-17T07:32:28.712Z,51.70
2018-05-17T07:34:56.172Z,51.40
2018-05-17T07:37:24.394Z,50.70
2018-05-17T07:39:51.984Z,50.70
2018-05-17T07:42:19.440Z,50.70
2018-05-17T07:44:46.935Z,50.70
2018-05-17T07:47:14.460Z,50.40
2018-05-17T07:49:41.876Z,50.30
2018-05-17T07:52:09.762Z,50.20
2018-05-17T07:54:37.244Z,50.50
2018-05-17T07:57:04.708Z,50.70
2018-05-17T07:59:32.188Z,51.20
2018-05-17T08:02:00.293Z,51.40
2018-05-17T08:04:27.891Z,51.70
2018-05-17T08:06:55.349Z,51.70
2018-05-17T08:09:23.120Z,51.90
2018-05-17T08:11:50.589Z,51.90
2018-05-17T08:14:18.045Z,52.00
2018-05-17T08:16:45.528Z,52.00
2018-05-17T08:19:12.985Z,51.50
2018-05-17T08:21:40.460Z,51.60
2018-05-17T08:24:07.940Z,51.90
2018-05-17T08:26:36.190Z,51.10
2018-05-17T08:29:03.790Z,51.10
2018-05-17T08:31:31.171Z,50.60
2018-05-17T08:33:58.678Z,50.40
2018-05-17T08:36:27.047Z,50.30
2018-05-17T08:38:54.445Z,50.30
2018-05-17T08:41:21.919Z,50.00
2018-05-17T08:43:49.400Z,49.90
2018-05-17T08:46:16.847Z,49.80
2018-05-17T08:48:44.320Z,49.50
2018-05-17T08:51:11.771Z,49.30
2018-05-17T08:53:39.272Z,49.70
2018-05-17T08:56:06.728Z,49.70
2018-05-17T08:58:34.197Z,49.30
2018-05-17T09:01:01.772Z,49.00
2018-05-17T09:03:29.253Z,49.00
2018-05-17T09:05:56.704Z,48.90
2018-05-17T09:08:24.231Z,48.90
2018-05-17T09:10:51.739Z,49.00
2018-05-17T09:13:19.972Z,49.10
2018-05-17T09:15:48.291Z,49.00
2018-05-17T09:18:15.746Z,49.00
2018-05-17T09:20:43.203Z,49.40
2018-05-17T09:23:10.695Z,49.20
2018-05-17T09:25:38.161Z,49.00
2018-05-17T09:28:05.668Z,48.80
2018-05-17T09:30:33.212Z,48.40
2018-05-17T09:33:00.707Z,48.40
2018-05-17T09:35:28.173Z,48.40
2018-05-17T09:37:55.698Z,48.10
2018-05-17T09:40:23.153Z,48.40
2018-05-17T09:42:50.665Z,48.30
2018-05-17T09:45:18.152Z,48.10
2018-05-17T09:47:46.408Z,47.30
2018-05-17T09:50:13.857Z,47.30
2018-05-17T09:52:41.332Z,46.30
2018-05-17T09:55:09.580Z,46.70
2018-05-17T09:57:37.108Z,46.10
2018-05-17T10:00:04.588Z,46.20
2018-05-17T10:02:32.050Z,46.10
2018-05-17T10:04:59.511Z,45.80
2018-05-17T10:07:27.029Z,45.20
2018-05-17T10:09:54.588Z,45.00
2018-05-17T10:12:22.072Z,45.20
2018-05-17T10:14:49.537Z,46.00
2018-05-17T10:17:17.029Z,46.00
2018-05-17T10:19:44.486Z,45.60
2018-05-17T10:22:11.986Z,45.10
2018-05-17T10:24:39.551Z,45.10
2018-05-17T10:27:07.040Z,45.10
2018-05-17T10:29:34.614Z,44.70
2018-05-17T10:32:02.062Z,44.50
2018-05-17T10:34:29.553Z,44.80
2018-05-17T10:36:57.891Z,44.70
2018-05-17T10:39:25.357Z,44.70
2018-05-17T10:41:52.816Z,45.00
2018-05-17T10:44:20.393Z,44.70
2018-05-17T10:46:47.851Z,44.50
2018-05-17T10:49:15.310Z,44.40
2018-05-17T10:51:42.800Z,45.00
2018-05-17T10:54:10.291Z,45.10
2018-05-17T10:56:37.749Z,44.80
2018-05-17T10:59:05.540Z,44.70
2018-05-17T11:01:33.012Z,44.40
2018-05-17T11:04:00.481Z,44.50
2018-05-17T11:06:27.957Z,44.40
2018-05-17T11:08:55.436Z,44.10
2018-05-17T11:11:22.969Z,42.90
2018-05-17T11:13:51.200Z,42.40
2018-05-17T11:16:18.683Z,42.30
2018-05-17T11:18:46.143Z,42.10
2018-05-17T11:21:13.600Z,42.30
2018-05-17T11:23:41.115Z,42.10
2018-05-17T11:26:08.616Z,42.40
2018-05-17T11:28:36.133Z,41.70
2018-05-17T11:31:03.881Z,41.10
2018-05-17T11:33:31.481Z,40.80
2018-05-17T11:35:58.941Z,40.10
2018-05-17T11:38:26.530Z,39.60
2018-05-17T11:40:53.922Z,39.60
2018-05-17T11:43:21.557Z,39.70
2018-05-17T11:45:49.016Z,40.10
2018-05-17T11:48:17.336Z,40.70
2018-05-17T11:50:44.752Z,40.70
2018-05-17T11:53:12.248Z,40.90
2018-05-17T11:55:39.716Z,41.10
2018-05-17T11:58:07.206Z,41.30
2018-05-17T12:00:34.675Z,41.90
2018-05-17T12:03:02.932Z,41.40
2018-05-17T12:05:30.379Z,41.30
2018-05-17T12:07:57.834Z,41.70
2018-05-17T12:10:25.390Z,42.00
2018-05-17T12:12:52.862Z,42.20
2018-05-17T12:15:20.320Z,42.00
2018-05-17T12:17:47.984Z,41.80
2018-05-17T12:20:15.804Z,41.60
2018-05-17T12:22:43.280Z,41.10
2018-05-17T12:25:10.768Z,40.90
2018-05-17T12:27:38.244Z,41.10
2018-05-17T12:30:05.724Z,41.10
2018-05-17T12:32:33.199Z,41.00
2018-05-17T12:35:00.688Z,40.20
2018-05-17T12:37:28.286Z,39.60
2018-05-17T12:39:56.537Z,39.80
2018-05-17T12:42:24.008Z,39.80
2018-05-17T12:44:51.497Z,40.00
2018-05-17T12:47:18.984Z,39.60
2018-05-17T12:49:46.560Z,39.50
2018-05-17T12:52:14.040Z,39.70
2018-05-17T12:54:41.526Z,40.20
2018-05-17T12:57:09.032Z,39.40
2018-05-17T12:59:36.502Z,39.90
2018-05-17T13:02:03.996Z,40.40
2018-05-17T13:04:32.604Z,39.80
2018-05-17T13:07:00.127Z,39.80
2018-05-17T13:09:27.721Z,40.00
2018-05-17T13:11:55.339Z,40.30
2018-05-17T13:14:22.854Z,40.70
2018-05-17T13:16:50.309Z,39.80
2018-05-17T13:19:17.808Z,40.10
2018-05-17T13:21:45.268Z,39.80
2018-05-17T13:24:12.777Z,40.10
2018-05-17T13:26:40.271Z,39.60
2018-05-17T13:29:07.756Z,39.90
2018-05-17T13:31:35.229Z,39.60
2018-05-17T13:34:03.472Z,39.80
2018-05-17T13:36:31.032Z,39.80
2018-05-17T13:38:58.506Z,40.20
2018-05-17T13:41:25.972Z,39.70
2018-05-17T13:43:53.481Z,38.60
2018-05-17T13:46:21.026Z,37.30
2018-05-17T13:48:48.535Z,35.50
2018-05-17T13:51:16.012Z,33.00
2018-05-17T13:53:43.474Z,31.00
2018-05-17T13:56:10.955Z,29.30
2018-05-17T13:58:38.457Z,28.30
2018-05-17T14:01:05.944Z,28.00
2018-05-17T14:03:33.392Z,27.30
2018-05-17T14:06:00.884Z,25.50
2018-05-17T14:08:29.115Z,25.10
2018-05-17T14:10:56.733Z,25.10
2018-05-17T14:13:24.208Z,24.50
2018-05-17T14:15:51.690Z,25.20
2018-05-17T14:18:19.180Z,24.60
2018-05-17T14:20:46.646Z,22.60
2018-05-17T14:23:14.963Z,21.90
2018-05-17T14:25:42.359Z,21.80
2018-05-17T14:28:09.815Z,21.60
2018-05-17T14:30:37.309Z,20.20
2018-05-17T14:33:05.571Z,20.20
2018-05-17T14:35:33.913Z,19.20
2018-05-17T14:38:01.435Z,19.10
2018-05-17T14:40:29.012Z,19.40
2018-05-17T14:42:56.489Z,19.70
2018-05-17T14:45:24.888Z,19.70
2018-05-17T14:47:52.348Z,19.50
2018-05-17T14:50:19.841Z,19.60
2018-05-17T14:52:48.096Z,18.70
2018-05-17T14:55:15.582Z,18.70
2018-05-17T14:57:43.832Z,18.80
2018-05-17T15:00:12.100Z,19.10
2018-05-17T15:02:40.337Z,19.70
2018-05-17T15:05:07.871Z,19.20
2018-05-17T15:07:35.408Z,19.10
2018-05-17T15:10:02.898Z,18.40
2018-05-17T15:12:30.383Z,19.20
2018-05-17T15:14:57.851Z,18.90
2018-05-17T15:17:25.375Z,19.60
2018-05-17T15:19:52.913Z,19.50
2018-05-17T15:22:21.137Z,19.00
2018-05-17T15:24:48.645Z,19.00
2018-05-17T15:27:16.910Z,19.00
2018-05-17T15:29:44.484Z,19.00
2018-05-17T15:32:12.627Z,20.10
2018-05-17T15:34:40.168Z,20.10
2018-05-17T15:37:07.662Z,21.40
2018-05-17T15:39:35.255Z,22.00
2018-05-17T15:42:02.763Z,22.90
2018-05-17T15:44:30.228Z,24.00
2018-05-17T15:46:57.680Z,24.80
2018-05-17T15:49:25.188Z,25.30
2018-05-17T15:51:52.648Z,25.80
2018-05-17T15:54:20.165Z,26.10
2018-05-17T15:56:47.685Z,26.70
2018-05-17T15:59:15.200Z,27.70
2018-05-17T16:01:42.664Z,28.80
2018-05-17T16:04:10.917Z,29.90
2018-05-17T16:06:38.479Z,29.90
2018-05-17T16:09:06.029Z,30.20
2018-05-17T16:11:33.925Z,30.60
2018-05-17T16:14:02.202Z,31.70
2018-05-17T16:16:29.686Z,31.70
2018-05-17T16:18:58.067Z,32.60
2018-05-17T16:21:25.562Z,32.60
2018-05-17T16:23:53.016Z,33.30
2018-05-17T16:26:20.516Z,33.80
2018-05-17T16:28:47.989Z,34.20
2018-05-17T16:31:15.466Z,34.20
2018-05-17T16:33:42.940Z,34.60
2018-05-17T16:36:10.430Z,35.00
2018-05-17T16:38:37.888Z,35.50
2018-05-17T16:41:05.408Z,35.80
2018-05-17T16:43:32.945Z,36.00
2018-05-17T16:46:00.463Z,36.20
2018-05-17T16:48:28.000Z,36.20
2018-05-17T16:50:56.183Z,37.20
2018-05-17T16:53:23.837Z,36.70
2018-05-17T16:55:52.137Z,36.80
2018-05-17T16:58:19.617Z,36.80
2018-05-17T17:00:47.324Z,37.10
2018-05-17T17:03:14.938Z,37.50
2018-05-17T17:05:42.463Z,37.70
2018-05-17T17:08:09.948Z,38.00
2018-05-17T17:10:37.443Z,38.60
2018-05-17T17:13:04.939Z,38.90
2018-05-17T17:15:32.434Z,39.50
2018-05-17T17:17:59.916Z,38.70
2018-05-17T17:20:28.470Z,37.40
2018-05-17T17:22:55.972Z,37.40
2018-05-17T17:25:23.440Z,37.40
2018-05-17T17:27:50.973Z,37.70
2018-05-17T17:30:20.048Z,38.40
2018-05-17T17:32:47.867Z,38.40
2018-05-17T17:35:15.457Z,39.00
2018-05-17T17:37:43.020Z,39.40
2018-05-17T17:40:10.584Z,39.50
2018-05-17T17:42:38.095Z,39.90
2018-05-17T17:45:05.736Z,39.90
2018-05-17T17:47:34.116Z,40.10
2018-05-17T17:50:02.525Z,40.40
2018-05-17T17:52:30.065Z,40.30
2018-05-17T17:54:57.723Z,39.90
2018-05-17T17:57:26.124Z,39.10
2018-05-17T17:59:53.843Z,39.10
2018-05-17T18:02:21.341Z,39.60
2018-05-17T18:04:48.953Z,40.20
2018-05-17T18:07:16.648Z,40.70
2018-05-17T18:09:44.343Z,41.10
2018-05-17T18:12:12.143Z,41.30
2018-05-17T18:14:39.884Z,41.70
2018-05-17T18:17:09.634Z,42.10
2018-05-17T18:19:38.041Z,42.60
2018-05-17T18:22:06.267Z,42.50
2018-05-17T18:24:33.848Z,42.50
2018-05-17T18:27:01.309Z,42.80
2018-05-17T18:29:28.899Z,43.10
2018-05-17T18:31:56.353Z,43.50
2018-05-17T18:34:24.612Z,44.10
2018-05-17T18:36:52.191Z,44.10
2018-05-17T18:39:19.684Z,44.40
2018-05-17T18:41:47.079Z,44.30
2018-05-17T18:44:14.918Z,44.50
2018-05-17T18:46:43.193Z,44.70
2018-05-17T18:49:10.644Z,44.70
2018-05-17T18:51:38.305Z,44.80
2018-05-17T18:54:06.840Z,45.30
2018-05-17T18:56:34.360Z,45.30
2018-05-17T18:59:01.978Z,45.60
2018-05-17T19:01:30.311Z,46.10
2018-05-17T19:03:57.782Z,46.10
2018-05-17T19:06:25.372Z,46.20
2018-05-17T19:08:53.606Z,46.60
2018-05-17T19:11:21.085Z,46.60
2018-05-17T19:13:48.564Z,46.80
2018-05-17T19:16:17.121Z,47.10
2018-05-17T19:18:44.591Z,47.10
2018-05-17T19:21:12.323Z,47.00
2018-05-17T19:23:39.981Z,47.10
2018-05-17T19:26:07.590Z,47.10
2018-05-17T19:28:35.433Z,47.10
2018-05-17T19:31:02.919Z,47.00
2018-05-17T19:33:30.645Z,47.10
2018-05-17T19:35:58.103Z,47.00
2018-05-17T19:38:25.579Z,47.00
2018-05-17T19:40:53.330Z,47.00
2018-05-17T19:43:20.812Z,47.10
2018-05-17T19:45:48.504Z,47.20
2018-05-17T19:48:16.004Z,47.30
2018-05-17T19:50:43.500Z,47.40
2018-05-17T19:53:11.869Z,48.10
2018-05-17T19:55:39.385Z,47.50
2018-05-17T19:58:06.850Z,47.40
2018-05-17T20:00:34.472Z,47.50
2018-05-17T20:03:02.080Z,47.60
2018-05-17T20:05:29.660Z,48.40
2018-05-17T20:07:57.143Z,47.80
2018-05-17T20:10:25.413Z,47.60
2018-05-17T20:12:53.647Z,47.50
2018-05-17T20:15:21.301Z,47.50
2018-05-17T20:17:49.588Z,47.50
2018-05-17T20:20:17.125Z,47.50
2018-05-17T20:22:45.257Z,47.60
2018-05-17T20:25:12.754Z,47.70
2018-05-17T20:27:40.552Z,47.60
2018-05-17T20:30:08.827Z,47.50
2018-05-17T20:32:36.323Z,47.50
2018-05-17T20:35:03.827Z,47.60
2018-05-17T20:37:31.288Z,47.60
2018-05-17T20:39:58.768Z,47.70
2018-05-17T20:42:26.323Z,47.80
2018-05-17T20:44:53.744Z,47.70
2018-05-17T20:47:21.222Z,47.80
2018-05-17T20:49:49.005Z,48.00
2018-05-17T20:52:16.464Z,48.00
2018-05-17T20:54:43.952Z,48.50
2018-05-17T20:57:11.408Z,48.60
2018-05-17T20:59:38.901Z,48.50
2018-05-17T21:02:06.389Z,48.60
2018-05-17T21:04:33.864Z,48.70
2018-05-17T21:07:01.353Z,48.70
2018-05-17T21:09:29.575Z,48.80
2018-05-17T21:11:57.251Z,48.80
2018-05-17T21:14:24.704Z,48.70
2018-05-17T21:16:52.189Z,48.70
2018-05-17T21:19:19.673Z,48.80
2018-05-17T21:21:47.917Z,48.90
2018-05-17T21:24:15.543Z,48.90
2018-05-17T21:26:43.132Z,48.70
2018-05-17T21:29:10.591Z,48.90
2018-05-17T21:31:38.081Z,49.10
2018-05-17T21:34:05.684Z,49.00
2018-05-17T21:36:33.147Z,49.10
2018-05-17T21:39:00.613Z,49.20
2018-05-17T21:41:28.088Z,49.20
2018-05-17T21:43:55.600Z,49.10
2018-05-17T21:46:23.061Z,49.30
2018-05-17T21:48:50.636Z,49.10
2018-05-17T21:51:18.229Z,49.20
2018-05-17T21:53:45.692Z,49.20
2018-05-17T21:56:13.177Z,49.30
2018-05-17T21:58:41.409Z,49.30
2018-05-17T22:01:08.897Z,49.30
2018-05-17T22:03:36.359Z,49.40
2018-05-17T22:06:03.858Z,49.20
2018-05-17T22:08:31.341Z,49.10
2018-05-17T22:10:58.805Z,49.30
2018-05-17T22:13:26.286Z,49.30
2018-05-17T22:15:53.779Z,49.50
2018-05-17T22:18:21.236Z,49.50
2018-05-17T22:20:48.717Z,49.60
2018-05-17T22:23:16.171Z,49.80
2018-05-17T22:25:43.660Z,49.80
2018-05-17T22:28:11.126Z,49.90
2018-05-17T22:30:38.670Z,50.00
2018-05-17T22:33:06.149Z,50.10
2018-05-17T22:35:33.632Z,50.00
2018-05-17T22:38:01.899Z,50.10
2018-05-17T22:40:29.521Z,50.10
2018-05-17T22:42:56.992Z,50.00
2018-05-17T22:45:24.475Z,50.00
2018-05-17T22:47:51.955Z,50.00
2018-05-17T22:50:20.204Z,50.20
2018-05-17T22:52:47.682Z,50.20
2018-05-17T22:55:15.164Z,50.20
2018-05-17T22:57:54.292Z,50.40
2018-05-17T23:00:21.762Z,50.30
2018-05-17T23:02:49.252Z,50.40
2018-05-17T23:05:17.068Z,50.60
2018-05-17T23:07:44.540Z,50.80
2018-05-17T23:10:12.485Z,50.90
2018-05-17T23:12:40.800Z,51.60
2018-05-17T23:15:08.284Z,51.20
2018-05-17T23:17:35.752Z,51.40
2018-05-17T23:20:03.224Z,51.50
2018-05-17T23:22:36.490Z,51.50
2018-05-17T23:25:03.983Z,51.50
2018-05-17T23:27:31.441Z,51.50
2018-05-17T23:29:58.900Z,52.10
2018-05-17T23:32:26.376Z,51.60
2018-05-17T23:34:53.849Z,51.70
2018-05-17T23:37:21.352Z,52.00
2018-05-17T23:39:48.845Z,52.20
2018-05-17T23:42:17.090Z,52.50
2018-05-17T23:44:44.693Z,52.50
2018-05-17T23:47:12.179Z,52.70
2018-05-17T23:49:39.663Z,52.90
2018-05-17T23:52:07.253Z,53.00
2018-05-17T23:54:34.842Z,53.30
2018-05-17T23:57:02.301Z,53.50
2018-05-17T23:59:29.793Z,53.60
